Portada
METAR-TAF:

METAR-TAF

Aeroports :

Londres Southend, Anglaterra

latitud: 51-34N, longitud: 000-42E, altitud: 15 m

Observació

L'informe es va fer fa 27 minuts, a les 11:20 UTC
Vent 7 kt del Est
Temperatura 17°C
Humitat 59%
Pressió 1026 hPa
Visibilitat 10 km o més
sense núvols per sota de 1500 mi sense presència de cumulonimbus.

METAR: EGMC 091120Z 10007KT CAVOK 17/09 Q1026

Hora: 12:47 (11:47 UTC)

Pronòstic

L'informe es va fer fa 49 minuts, a les 10:58 UTC
Pronòstic vàlid del 09 a les 12 UTC al 09 a les 21 UTC
Vent 6 kt del Est/Nord-Est
Visibilitat 10 km o més
Escasses núvols a una alçada de 4500 ft
Probabilitat 40% :
Temporalment
l' 09 a les 12 UTC al 09 a les 21 UTC
Visibilitat: 7000 m

TAF: EGMC 091058Z 0912/0921 07006KT 9999 FEW045 PROB40 TEMPO 0912/0921 7000

Observacions i pronòstics meteorològics de més de 4000 aeroports (METAR i TAF).

Les estacions disponibles són els punts grocs i vermells al mapa.

Posi el ratolí al punt desitjat per veure el nom de l'estació.

Feu clic per veure les observacions i els pronòstics meteorològics.

Per canviar el mapa: feu clic els botons verds amb una creu de color negre per apropar; al botó verd amb un guió per allunyar la imatge; o en les fletxes verdes per a mapes adjacents.


METAR-TAF: